Time;durP1;ratioP1;P1;durP2;ratioP2;P2;SDS_P1;SDS_P2;PMS_P1;PMS_P2;Temp;Humidity;BMP_temperature;BMP_pressure;BME280_temperature;BME280_humidity;BME280_pressure;Samples;Min_cycle;Max_cycle;Signal;HPM_P1;HPM_P2
2022/01/11 00:02:18;;;;;;;0.40;0.40;;;0.40;99.90;;;;;;5056513;28;20445;-67
2022/01/11 00:05:05;;;;;;;0.40;0.40;;;0.30;99.90;;;;;;5058373;28;20474;-66
2022/01/11 00:07:54;;;;;;;0.40;0.40;;;0.20;99.90;;;;;;5058863;28;20416;-66
2022/01/11 00:10:49;;;;;;;0.40;0.40;;;0.20;99.90;;;;;;5057778;28;20436;-66
2022/01/11 00:13:38;;;;;;;1.17;1.17;;;0.20;99.90;;;;;;5058854;28;20806;-66
2022/01/11 00:16:25;;;;;;;0.40;0.40;;;0.10;99.90;;;;;;5059187;28;20420;-67
2022/01/11 00:19:13;;;;;;;2.20;2.10;;;0.10;99.90;;;;;;5056713;28;20424;-66
2022/01/11 00:22:03;;;;;;;0.40;0.40;;;0.00;99.90;;;;;;5062085;28;20444;-66
2022/01/11 00:24:49;;;;;;;0.40;0.40;;;0.00;99.90;;;;;;5063273;28;20417;-66
2022/01/11 00:27:37;;;;;;;0.40;0.40;;;-0.10;99.90;;;;;;5061932;28;20467;-66
2022/01/11 00:30:30;;;;;;;0.40;0.40;;;-0.10;99.90;;;;;;5060274;28;20417;-66
2022/01/11 00:33:22;;;;;;;0.60;0.60;;;-0.20;99.90;;;;;;5061031;28;20432;-66
2022/01/11 00:36:11;;;;;;;0.40;0.40;;;-0.20;99.90;;;;;;5060249;28;20421;-66
2022/01/11 00:38:58;;;;;;;0.50;0.50;;;-0.30;99.90;;;;;;5058675;28;20486;-66
2022/01/11 00:41:45;;;;;;;0.40;0.40;;;-0.40;99.90;;;;;;5058336;28;20444;-67
2022/01/11 00:44:34;;;;;;;0.70;0.70;;;-0.50;99.90;;;;;;5059365;28;20802;-66
2022/01/11 00:47:20;;;;;;;0.40;0.40;;;-0.50;99.90;;;;;;5059942;28;20594;-66
2022/01/11 00:50:09;;;;;;;0.40;0.40;;;-0.40;99.90;;;;;;5058971;28;20431;-66
2022/01/11 00:52:56;;;;;;;0.40;0.40;;;-0.40;99.90;;;;;;5057974;28;20429;-66
2022/01/11 00:55:44;;;;;;;0.50;0.50;;;-0.40;99.90;;;;;;5058139;28;20802;-66
2022/01/11 00:58:31;;;;;;;1.53;1.43;;;-0.40;99.90;;;;;;5058600;28;20929;-66
2022/01/11 01:01:19;;;;;;;1.73;1.63;;;-0.40;99.90;;;;;;5058039;28;20907;-66
2022/01/11 01:04:07;;;;;;;0.40;0.40;;;-0.50;99.90;;;;;;5057537;28;20841;-66
2022/01/11 01:06:54;;;;;;;0.40;0.40;;;-0.50;99.90;;;;;;5058219;28;20522;-67
2022/01/11 01:09:50;;;;;;;0.40;0.40;;;-0.50;99.90;;;;;;5057915;28;20440;-66
2022/01/11 01:12:38;;;;;;;0.40;0.40;;;-0.40;99.90;;;;;;5059016;28;20460;-66
2022/01/11 01:15:27;;;;;;;0.40;0.40;;;-0.30;99.90;;;;;;5060697;28;20435;-67
2022/01/11 01:18:16;;;;;;;0.40;0.40;;;-0.20;99.90;;;;;;5061212;28;20425;-67
2022/01/11 01:21:04;;;;;;;0.40;0.40;;;-0.10;99.90;;;;;;5063344;28;20452;-68
2022/01/11 01:23:51;;;;;;;0.40;0.40;;;0.00;99.90;;;;;;5062818;28;20439;-66
2022/01/11 01:26:38;;;;;;;0.50;0.50;;;0.10;99.90;;;;;;5061316;28;20469;-67
2022/01/11 01:29:25;;;;;;;0.40;0.40;;;0.20;99.90;;;;;;5062210;28;20498;-66
2022/01/11 01:32:12;;;;;;;0.40;0.40;;;0.20;99.90;;;;;;5062221;28;20448;-66
2022/01/11 01:35:04;;;;;;;6.47;1.73;;;0.20;99.90;;;;;;5059438;28;20429;-66
2022/01/11 01:37:51;;;;;;;0.73;0.73;;;0.30;99.90;;;;;;5065080;28;20436;-66
2022/01/11 01:40:43;;;;;;;0.40;0.40;;;0.40;99.90;;;;;;5061906;28;20428;-66
2022/01/11 01:43:31;;;;;;;0.40;0.40;;;0.40;99.90;;;;;;5058167;28;20437;-66
2022/01/11 01:46:19;;;;;;;0.50;0.50;;;0.40;99.90;;;;;;5056930;28;20471;-66
2022/01/11 01:49:07;;;;;;;2.57;2.37;;;0.40;99.90;;;;;;5061961;28;20432;-68
2022/01/11 01:51:55;;;;;;;2.50;2.30;;;0.40;99.90;;;;;;5061508;28;20451;-67
2022/01/11 01:54:43;;;;;;;3.60;1.23;;;0.40;99.90;;;;;;5060942;28;20425;-67
2022/01/11 01:57:30;;;;;;;1.60;1.50;;;0.40;99.90;;;;;;5062059;28;20436;-67
2022/01/11 02:00:18;;;;;;;2.00;1.53;;;0.40;99.90;;;;;;5067179;28;20431;-67
2022/01/11 02:03:08;;;;;;;3.03;1.93;;;0.30;99.90;;;;;;5065183;28;20432;-66
2022/01/11 02:05:56;;;;;;;1.07;1.07;;;0.30;99.90;;;;;;5061296;28;20433;-66
2022/01/11 02:08:47;;;;;;;15.10;9.93;;;0.30;99.90;;;;;;5082589;28;20431;-68
2022/01/11 02:11:34;;;;;;;1.37;1.30;;;0.10;99.90;;;;;;5081783;28;20537;-67
2022/01/11 02:14:21;;;;;;;0.90;0.90;;;0.00;99.90;;;;;;5082950;28;20934;-67
2022/01/11 02:17:08;;;;;;;0.40;0.40;;;-0.10;99.90;;;;;;5081014;28;20427;-68
2022/01/11 02:19:55;;;;;;;5.03;2.30;;;-0.20;99.90;;;;;;5081487;28;20424;-67
2022/01/11 02:22:44;;;;;;;1.20;1.13;;;-0.20;99.90;;;;;;5080426;28;20451;-67
2022/01/11 02:25:31;;;;;;;1.60;1.23;;;-0.20;99.90;;;;;;5081422;28;20436;-67
2022/01/11 02:28:19;;;;;;;1.53;1.43;;;-0.20;99.90;;;;;;5080107;28;20466;-67
2022/01/11 02:31:12;;;;;;;0.40;0.40;;;-0.20;99.90;;;;;;5080030;28;20436;-67
2022/01/11 02:33:59;;;;;;;0.50;0.50;;;-0.30;99.90;;;;;;5080408;28;20780;-66
2022/01/11 02:36:46;;;;;;;0.40;0.40;;;-0.20;99.90;;;;;;5080698;28;20431;-66
2022/01/11 02:39:35;;;;;;;4.77;4.37;;;0.00;99.90;;;;;;5081722;28;20424;-66
2022/01/11 02:42:23;;;;;;;0.70;0.70;;;0.10;99.90;;;;;;5079903;28;20476;-66
2022/01/11 02:45:14;;;;;;;1.67;1.57;;;0.20;99.90;;;;;;5081015;28;20506;-66
2022/01/11 02:48:01;;;;;;;1.17;1.17;;;0.20;99.90;;;;;;5079853;28;20470;-68
2022/01/11 02:50:49;;;;;;;0.50;0.50;;;0.20;99.90;;;;;;5081843;28;20467;-67
2022/01/11 02:53:39;;;;;;;2.20;2.10;;;0.30;99.90;;;;;;5083423;28;20428;-66
2022/01/11 02:56:28;;;;;;;1.83;1.73;;;0.30;99.90;;;;;;5081565;28;20955;-66
2022/01/11 02:59:15;;;;;;;0.40;0.40;;;0.30;99.90;;;;;;5084499;28;20427;-67
2022/01/11 03:02:02;;;;;;;0.50;0.50;;;0.40;99.90;;;;;;5068653;28;20449;-66
2022/01/11 03:04:48;;;;;;;0.50;0.50;;;0.40;99.90;;;;;;5064148;28;20432;-66
2022/01/11 03:07:35;;;;;;;0.87;0.87;;;0.40;99.90;;;;;;5083010;28;20467;-67
2022/01/11 03:10:30;;;;;;;3.33;1.80;;;0.40;99.90;;;;;;5086451;28;20435;-67
2022/01/11 03:13:20;;;;;;;0.50;0.50;;;0.30;99.90;;;;;;5114770;22;20489;-70
2022/01/11 03:16:07;;;;;;;2.17;2.07;;;0.30;99.90;;;;;;5091099;28;20422;-70
2022/01/11 03:18:54;;;;;;;1.00;1.00;;;0.20;99.90;;;;;;5092550;28;20426;-70
2022/01/11 03:21:41;;;;;;;1.70;1.60;;;0.20;99.90;;;;;;5094753;28;20434;-70
2022/01/11 03:24:28;;;;;;;1.17;1.17;;;0.10;99.90;;;;;;5094887;28;20426;-70
2022/01/11 03:27:15;;;;;;;12.40;11.77;;;0.20;99.90;;;;;;5094647;28;20466;-70
2022/01/11 03:30:04;;;;;;;0.60;0.60;;;0.20;99.90;;;;;;5095158;28;20423;-70
2022/01/11 03:32:51;;;;;;;2.10;2.00;;;0.10;99.90;;;;;;5094396;28;20446;-70
2022/01/11 03:35:40;;;;;;;0.47;0.47;;;0.00;99.90;;;;;;5094131;28;20419;-70
2022/01/11 03:38:27;;;;;;;6.37;2.30;;;0.10;99.90;;;;;;5094965;28;20411;-70
2022/01/11 03:41:14;;;;;;;0.40;0.40;;;1.40;99.90;;;;;;5094315;28;20421;-70
2022/01/11 03:44:01;;;;;;;4.97;4.70;;;0.10;99.90;;;;;;5094301;28;20419;-70
2022/01/11 03:46:49;;;;;;;0.50;0.50;;;0.20;99.90;;;;;;5093984;28;20465;-70
2022/01/11 03:49:36;;;;;;;0.50;0.50;;;0.20;99.90;;;;;;5093991;28;20422;-70
2022/01/11 03:52:24;;;;;;;0.60;0.60;;;0.10;99.90;;;;;;5094022;28;20451;-70
2022/01/11 03:55:20;;;;;;;1.53;1.43;;;0.10;99.90;;;;;;5094107;28;20455;-70
2022/01/11 03:58:07;;;;;;;0.43;0.43;;;0.00;99.90;;;;;;5093401;28;20411;-70
2022/01/11 04:00:55;;;;;;;0.50;0.50;;;0.00;99.90;;;;;;5093752;28;20423;-70
2022/01/11 04:03:44;;;;;;;1.83;1.73;;;0.20;99.90;;;;;;5093735;28;20442;-70
2022/01/11 04:06:31;;;;;;;0.70;0.70;;;0.20;99.90;;;;;;5078348;28;20427;-71
2022/01/11 04:09:19;;;;;;;2.63;2.57;;;0.30;99.90;;;;;;5076013;28;20426;-70
2022/01/11 04:12:07;;;;;;;1.80;1.70;;;0.20;99.90;;;;;;5075076;28;20462;-70
2022/01/11 04:14:54;;;;;;;0.43;0.43;;;0.10;99.90;;;;;;5075314;28;20431;-70
2022/01/11 04:17:41;;;;;;;1.40;1.40;;;0.10;99.90;;;;;;5076325;28;20419;-70
2022/01/11 04:20:29;;;;;;;11.10;10.37;;;0.20;99.90;;;;;;5083980;28;20423;-69
2022/01/11 04:23:16;;;;;;;2.10;2.00;;;0.10;99.90;;;;;;5082912;28;20436;-70
2022/01/11 04:26:03;;;;;;;0.50;0.50;;;0.10;99.90;;;;;;5082173;28;20423;-71
2022/01/11 04:28:50;;;;;;;0.57;0.57;;;0.10;99.90;;;;;;5082099;28;20479;-70
2022/01/11 04:31:37;;;;;;;0.50;0.50;;;0.00;99.90;;;;;;5082678;28;20443;-70
2022/01/11 04:34:25;;;;;;;1.47;1.40;;;0.00;99.90;;;;;;5074438;28;20837;-69
2022/01/11 04:37:13;;;;;;;2.83;2.10;;;0.00;99.90;;;;;;5074683;28;20427;-70
2022/01/11 04:40:00;;;;;;;0.50;0.50;;;0.00;99.90;;;;;;5073715;28;20419;-69
2022/01/11 04:42:47;;;;;;;0.50;0.50;;;-0.10;99.90;;;;;;5074487;28;20435;-70
2022/01/11 04:45:34;;;;;;;0.60;0.60;;;-0.20;99.90;;;;;;5075056;28;20427;-70
2022/01/11 04:48:21;;;;;;;1.50;1.50;;;-0.10;99.90;;;;;;5073977;28;20459;-70
2022/01/11 04:51:08;;;;;;;2.40;2.20;;;-0.10;99.90;;;;;;5074140;28;20427;-71
2022/01/11 04:53:57;;;;;;;0.50;0.50;;;-0.20;99.90;;;;;;5080183;28;20428;-70
2022/01/11 04:56:44;;;;;;;0.40;0.40;;;-0.20;99.90;;;;;;5092542;28;20428;-70
2022/01/11 04:59:31;;;;;;;0.50;0.50;;;-0.20;99.90;;;;;;5091835;28;20416;-70
2022/01/11 05:02:19;;;;;;;2.70;2.50;;;-0.10;99.90;;;;;;5109816;28;20442;-70
2022/01/11 05:05:07;;;;;;;0.50;0.50;;;0.00;99.90;;;;;;5111875;28;21007;-71
2022/01/11 05:07:54;;;;;;;2.43;2.33;;;-0.10;99.90;;;;;;5110446;28;20467;-71
2022/01/11 05:10:43;;;;;;;0.83;0.83;;;-0.10;99.90;;;;;;5110413;28;20423;-70
2022/01/11 05:13:31;;;;;;;0.70;0.70;;;-0.10;99.90;;;;;;5111068;28;20538;-70
2022/01/11 05:16:18;;;;;;;0.80;0.80;;;-0.10;99.90;;;;;;5111439;28;20450;-70
2022/01/11 05:19:06;;;;;;;0.50;0.50;;;-0.10;99.90;;;;;;5111497;28;20445;-71
2022/01/11 05:21:53;;;;;;;0.40;0.40;;;-0.10;99.90;;;;;;5111897;28;20446;-72
2022/01/11 05:24:40;;;;;;;0.50;0.50;;;-0.20;99.90;;;;;;5111730;28;20492;-70
2022/01/11 05:27:30;;;;;;;6.23;5.23;;;-0.20;99.90;;;;;;5112760;28;20474;-70
2022/01/11 05:30:18;;;;;;;0.70;0.70;;;-0.30;99.90;;;;;;5112969;28;20433;-70
2022/01/11 05:33:05;;;;;;;3.07;2.80;;;-0.30;99.90;;;;;;5092991;28;20435;-70
2022/01/11 05:35:52;;;;;;;0.40;0.40;;;-0.20;99.90;;;;;;5093371;28;20434;-71
2022/01/11 05:38:39;;;;;;;1.97;1.87;;;-0.20;99.90;;;;;;5093269;28;20423;-70
2022/01/11 05:41:26;;;;;;;0.50;0.50;;;-0.10;99.90;;;;;;5091749;28;20434;-72
2022/01/11 05:44:14;;;;;;;0.40;0.40;;;-0.10;99.90;;;;;;5094205;28;20427;-70
2022/01/11 05:47:02;;;;;;;1.57;1.33;;;0.00;99.90;;;;;;5094071;28;20423;-71
2022/01/11 05:49:50;;;;;;;0.50;0.50;;;0.00;99.90;;;;;;5092962;28;20434;-69
2022/01/11 05:52:39;;;;;;;0.40;0.40;;;0.00;99.90;;;;;;5092705;28;20652;-69
2022/01/11 05:55:26;;;;;;;0.50;0.50;;;0.00;99.90;;;;;;5093720;28;20517;-70
2022/01/11 05:58:12;;;;;;;0.80;0.80;;;0.00;99.90;;;;;;5092998;28;20415;-70
2022/01/11 06:01:01;;;;;;;0.50;0.50;;;0.00;99.90;;;;;;5084544;28;20423;-69
2022/01/11 06:03:48;;;;;;;1.47;1.47;;;-0.10;99.90;;;;;;5074506;28;20430;-70
2022/01/11 06:06:35;;;;;;;0.40;0.40;;;-0.10;99.90;;;;;;5089592;28;20435;-70
2022/01/11 06:09:26;;;;;;;0.50;0.50;;;-0.10;99.90;;;;;;5085307;28;20468;-70
2022/01/11 06:12:12;;;;;;;0.87;0.77;;;0.10;99.90;;;;;;5084415;28;20971;-71
2022/01/11 06:14:59;;;;;;;0.50;0.50;;;0.00;99.90;;;;;;5088212;28;20438;-71
2022/01/11 06:17:48;;;;;;;0.50;0.50;;;0.00;99.90;;;;;;5088226;28;20457;-70
2022/01/11 06:20:35;;;;;;;0.50;0.50;;;0.00;99.90;;;;;;5088534;28;20431;-70
2022/01/11 06:23:22;;;;;;;0.50;0.50;;;0.10;99.90;;;;;;5086923;28;20444;-70
2022/01/11 06:26:09;;;;;;;0.50;0.50;;;0.10;99.90;;;;;;5086245;28;20824;-70
2022/01/11 06:28:56;;;;;;;1.23;1.13;;;0.10;99.90;;;;;;5086018;28;20460;-70
2022/01/11 06:31:43;;;;;;;1.13;1.13;;;0.10;99.90;;;;;;5084417;28;20501;-70
2022/01/11 06:34:32;;;;;;;0.50;0.50;;;0.10;99.90;;;;;;5084936;28;20416;-70
2022/01/11 06:37:18;;;;;;;0.40;0.40;;;0.00;99.90;;;;;;5073861;28;20948;-71
2022/01/11 06:40:08;;;;;;;0.43;0.43;;;0.00;99.90;;;;;;5073655;28;20423;-70
2022/01/11 06:42:55;;;;;;;0.50;0.50;;;-0.10;99.90;;;;;;5079716;28;20443;-70
2022/01/11 06:45:44;;;;;;;0.40;0.40;;;-0.20;99.90;;;;;;5090819;28;20423;-70
2022/01/11 06:48:31;;;;;;;0.70;0.70;;;-0.20;99.90;;;;;;5073132;28;20464;-69
2022/01/11 06:51:20;;;;;;;1.00;1.00;;;-0.30;99.90;;;;;;5072750;28;20432;-70
2022/01/11 06:54:07;;;;;;;0.50;0.50;;;-0.30;99.90;;;;;;5080513;28;20497;-71
2022/01/11 06:56:54;;;;;;;0.50;0.50;;;-0.30;99.90;;;;;;5080202;28;20781;-71
2022/01/11 06:59:41;;;;;;;0.40;0.40;;;-0.30;99.90;;;;;;5080361;28;20415;-72
2022/01/11 07:02:28;;;;;;;0.50;0.50;;;-0.30;99.90;;;;;;5079935;28;20577;-70
2022/01/11 07:05:15;;;;;;;0.50;0.50;;;-0.30;99.90;;;;;;5078739;28;20427;-72
2022/01/11 07:08:04;;;;;;;2.00;1.90;;;-0.20;99.90;;;;;;5079028;28;20467;-71
2022/01/11 07:10:51;;;;;;;1.03;0.93;;;-0.10;99.90;;;;;;5079503;28;20796;-71
2022/01/11 07:13:37;;;;;;;0.50;0.50;;;0.00;99.90;;;;;;5080073;28;20935;-69
2022/01/11 07:16:24;;;;;;;0.50;0.50;;;0.10;99.90;;;;;;5077232;28;20489;-70
2022/01/11 07:19:11;;;;;;;0.40;0.40;;;0.00;99.90;;;;;;5077030;28;20932;-69
2022/01/11 07:21:59;;;;;;;0.43;0.43;;;0.00;99.90;;;;;;5076835;28;20447;-70
2022/01/11 07:24:47;;;;;;;0.40;0.40;;;0.20;99.90;;;;;;5082194;28;20509;-70
2022/01/11 07:27:34;;;;;;;0.50;0.50;;;0.20;99.90;;;;;;5081216;28;20428;-71
2022/01/11 07:30:21;;;;;;;0.50;0.50;;;0.20;99.90;;;;;;5081252;28;20419;-71
2022/01/11 07:33:08;;;;;;;0.50;0.50;;;0.10;99.90;;;;;;5081184;28;20510;-71
2022/01/11 07:35:55;;;;;;;0.40;0.40;;;0.00;99.90;;;;;;5085461;28;20454;-70
2022/01/11 07:38:42;;;;;;;0.43;0.43;;;0.00;99.90;;;;;;5096914;28;20793;-71
2022/01/11 07:41:31;;;;;;;0.50;0.50;;;0.10;99.90;;;;;;5098030;28;20422;-70
2022/01/11 07:44:18;;;;;;;0.50;0.50;;;0.10;99.90;;;;;;5093218;28;20415;-70
2022/01/11 07:47:05;;;;;;;0.50;0.50;;;0.10;99.90;;;;;;5079972;28;20439;-71
2022/01/11 07:49:52;;;;;;;0.50;0.50;;;0.20;99.90;;;;;;5084595;28;20462;-71
2022/01/11 07:52:40;;;;;;;0.50;0.50;;;0.20;99.90;;;;;;5097642;28;20475;-71
2022/01/11 07:55:27;;;;;;;0.43;0.43;;;0.20;99.90;;;;;;5096938;28;20423;-71
2022/01/11 07:58:15;;;;;;;0.50;0.50;;;0.30;99.90;;;;;;5096190;28;20414;-69
2022/01/11 08:01:02;;;;;;;0.60;0.60;;;0.30;99.90;;;;;;5082494;28;20422;-70
2022/01/11 08:03:49;;;;;;;1.27;1.27;;;0.20;99.90;;;;;;5074569;28;20781;-70
2022/01/11 08:06:36;;;;;;;0.50;0.50;;;0.30;99.90;;;;;;5084947;28;20812;-71
2022/01/11 08:09:23;;;;;;;1.80;1.70;;;0.40;99.90;;;;;;5084393;28;20460;-70
2022/01/11 08:12:10;;;;;;;0.50;0.50;;;0.40;99.90;;;;;;5075083;28;20462;-70
2022/01/11 08:14:59;;;;;;;0.50;0.50;;;0.40;99.90;;;;;;5074579;28;20832;-71
2022/01/11 08:17:46;;;;;;;0.50;0.50;;;0.40;99.90;;;;;;5086817;28;20419;-69
2022/01/11 08:20:33;;;;;;;0.50;0.50;;;0.50;99.90;;;;;;5089923;28;20426;-69
2022/01/11 08:23:20;;;;;;;0.50;0.50;;;0.40;99.90;;;;;;5073959;28;20435;-69
2022/01/11 08:26:07;;;;;;;0.97;0.97;;;0.50;99.90;;;;;;5075061;28;20439;-69
2022/01/11 08:28:54;;;;;;;0.50;0.50;;;0.60;99.90;;;;;;5075084;28;20459;-70
2022/01/11 08:31:43;;;;;;;0.60;0.60;;;0.70;99.90;;;;;;5086929;28;20441;-70
2022/01/11 08:34:30;;;;;;;0.50;0.50;;;0.60;99.90;;;;;;5094060;28;21202;-69
2022/01/11 08:37:18;;;;;;;0.50;0.50;;;0.60;99.90;;;;;;5090578;28;20442;-69
2022/01/11 08:40:07;;;;;;;1.33;1.33;;;0.60;99.90;;;;;;5088350;28;20430;-69
2022/01/11 08:42:54;;;;;;;0.50;0.50;;;0.60;99.90;;;;;;5094634;28;20458;-69
2022/01/11 08:45:41;;;;;;;0.50;0.50;;;0.50;99.90;;;;;;5093956;28;20419;-70
2022/01/11 08:48:30;;;;;;;0.50;0.50;;;0.50;99.90;;;;;;5094232;28;20462;-69
2022/01/11 08:51:17;;;;;;;2.20;2.10;;;0.50;99.90;;;;;;5092731;28;20430;-70
2022/01/11 08:54:04;;;;;;;0.50;0.50;;;0.70;99.90;;;;;;5094890;28;20517;-70
2022/01/11 08:56:53;;;;;;;0.50;0.50;;;0.80;99.90;;;;;;5077463;28;20424;-70
2022/01/11 08:59:40;;;;;;;4.30;4.00;;;0.80;99.90;;;;;;5076264;28;20425;-69
2022/01/11 09:02:27;;;;;;;0.60;0.60;;;0.90;99.90;;;;;;5073575;28;20447;-69
2022/01/11 09:05:16;;;;;;;0.50;0.50;;;0.90;99.90;;;;;;5075282;28;21053;-69
2022/01/11 09:08:03;;;;;;;0.40;0.40;;;1.00;99.90;;;;;;5075546;28;20806;-70
2022/01/11 09:10:50;;;;;;;0.40;0.40;;;0.90;99.90;;;;;;5075154;28;20432;-70
2022/01/11 09:13:38;;;;;;;0.77;0.77;;;1.00;99.90;;;;;;5074192;28;20541;-70
2022/01/11 09:16:26;;;;;;;0.40;0.40;;;1.10;99.90;;;;;;5084521;28;20427;-71
2022/01/11 09:19:14;;;;;;;0.50;0.50;;;1.10;99.90;;;;;;5095926;28;20419;-70
2022/01/11 09:22:03;;;;;;;0.50;0.50;;;1.10;99.90;;;;;;5095939;28;20458;-70
2022/01/11 09:24:50;;;;;;;0.50;0.50;;;1.10;99.90;;;;;;5094625;28;20422;-71
2022/01/11 09:27:37;;;;;;;0.50;0.50;;;1.20;99.90;;;;;;5095505;28;20438;-70
2022/01/11 09:30:25;;;;;;;0.40;0.40;;;1.30;99.90;;;;;;5085425;28;20467;-70
2022/01/11 09:33:11;;;;;;;2.87;2.60;;;1.40;99.90;;;;;;5085827;28;20446;-70
2022/01/11 09:35:59;;;;;;;0.50;0.50;;;1.40;99.90;;;;;;5093070;28;20419;-70
2022/01/11 09:38:47;;;;;;;0.60;0.60;;;1.20;99.90;;;;;;5085073;28;20821;-70
2022/01/11 09:41:35;;;;;;;0.80;0.80;;;1.20;99.90;;;;;;5089322;28;20435;-70
2022/01/11 09:44:22;;;;;;;0.40;0.40;;;1.00;99.90;;;;;;5074553;28;20432;-70
2022/01/11 09:47:11;;;;;;;0.50;0.50;;;1.10;99.90;;;;;;5085097;28;20437;-72
2022/01/11 09:49:58;;;;;;;1.67;1.63;;;1.10;99.90;;;;;;5082947;28;20466;-70
2022/01/11 09:52:46;;;;;;;0.70;0.70;;;1.10;99.90;;;;;;5095424;28;20489;-71
2022/01/11 09:55:36;;;;;;;0.50;0.50;;;1.20;99.90;;;;;;5093660;28;20426;-70
2022/01/11 09:58:23;;;;;;;0.50;0.50;;;1.20;99.90;;;;;;5085967;28;20451;-70
2022/01/11 10:01:11;;;;;;;0.50;0.50;;;1.20;99.90;;;;;;5079188;28;20435;-70
2022/01/11 10:04:01;;;;;;;1.57;1.47;;;1.30;99.90;;;;;;5075683;28;20428;-70
2022/01/11 10:06:54;;;;;;;0.63;0.63;;;1.20;99.90;;;;;;5075131;28;20432;-70
2022/01/11 10:09:47;;;;;;;1.93;1.83;;;1.20;99.90;;;;;;5085835;28;20542;-70
2022/01/11 10:12:47;;;;;;;0.50;0.50;;;1.20;99.90;;;;;;5074202;28;20462;-71
2022/01/11 10:15:39;;;;;;;0.50;0.50;;;1.30;99.90;;;;;;5081839;28;20438;-70
2022/01/11 10:18:36;;;;;;;1.23;0.77;;;1.50;99.90;;;;;;5086552;28;20579;-70
2022/01/11 10:21:35;;;;;;;0.50;0.50;;;1.60;99.90;;;;;;5094241;28;20434;-71
2022/01/11 10:24:32;;;;;;;0.50;0.50;;;1.60;99.90;;;;;;5093218;28;20434;-71
2022/01/11 10:27:22;;;;;;;0.47;0.47;;;1.50;99.90;;;;;;5072996;28;20423;-71
2022/01/11 10:30:12;;;;;;;0.50;0.50;;;1.40;99.90;;;;;;5080505;28;20473;-71
2022/01/11 10:33:03;;;;;;;0.40;0.40;;;1.40;99.90;;;;;;5072652;28;20502;-70
2022/01/11 10:35:50;;;;;;;0.50;0.50;;;1.40;99.90;;;;;;5072111;28;20439;-71
2022/01/11 10:38:37;;;;;;;0.53;0.53;;;1.30;99.90;;;;;;5073363;28;20484;-71
2022/01/11 10:41:44;;;;;;;0.50;0.50;;;1.30;99.90;;;;;;5073545;28;20443;-71
2022/01/11 10:44:53;;;;;;;0.50;0.50;;;1.30;99.90;;;;;;5073302;28;20430;-70
2022/01/11 10:47:43;;;;;;;0.50;0.50;;;1.50;99.90;;;;;;5074432;28;20806;-70
2022/01/11 10:50:34;;;;;;;0.50;0.50;;;1.50;99.90;;;;;;5073318;28;20466;-71
2022/01/11 10:53:24;;;;;;;0.43;0.43;;;1.60;99.90;;;;;;5074529;28;20845;-70
2022/01/11 10:56:11;;;;;;;0.90;0.90;;;1.40;99.90;;;;;;5074711;28;20428;-72
2022/01/11 10:59:06;;;;;;;0.87;0.87;;;1.60;99.90;;;;;;5072818;28;20451;-71
2022/01/11 11:01:53;;;;;;;1.73;1.63;;;1.80;99.90;;;;;;5072337;28;20459;-70
2022/01/11 11:04:41;;;;;;;0.40;0.40;;;1.80;99.90;;;;;;5073059;28;20419;-70
2022/01/11 11:07:28;;;;;;;0.40;0.40;;;1.80;99.90;;;;;;5073839;28;20431;-71
2022/01/11 11:10:15;;;;;;;2.30;1.27;;;1.90;99.90;;;;;;5074428;28;20550;-71
2022/01/11 11:13:03;;;;;;;0.50;0.50;;;1.90;99.90;;;;;;5087849;28;20453;-71
2022/01/11 11:15:51;;;;;;;3.13;1.93;;;1.70;99.90;;;;;;5084897;28;20510;-71
2022/01/11 11:18:41;;;;;;;0.50;0.50;;;1.80;99.90;;;;;;5073750;28;20450;-70
2022/01/11 11:21:32;;;;;;;0.90;0.90;;;1.90;99.90;;;;;;5072297;28;21284;-70
2022/01/11 11:24:19;;;;;;;3.27;3.03;;;1.90;99.90;;;;;;5079680;28;20480;-71
2022/01/11 11:27:06;;;;;;;0.80;0.80;;;1.90;99.90;;;;;;5092921;28;20831;-71
2022/01/11 11:29:53;;;;;;;0.40;0.40;;;1.90;99.90;;;;;;5093075;28;20458;-70
2022/01/11 11:32:42;;;;;;;0.50;0.50;;;2.00;99.90;;;;;;5081311;28;20458;-70
2022/01/11 11:35:29;;;;;;;0.47;0.47;;;1.90;99.90;;;;;;5081385;28;20422;-70
2022/01/11 11:38:20;;;;;;;0.40;0.40;;;1.90;99.90;;;;;;5091711;28;20922;-70
2022/01/11 11:41:08;;;;;;;0.70;0.70;;;2.20;99.90;;;;;;5096563;28;20434;-70
2022/01/11 11:44:07;;;;;;;0.50;0.50;;;1.90;99.90;;;;;;5095864;28;20433;-71
2022/01/11 11:46:58;;;;;;;0.97;0.97;;;1.90;99.90;;;;;;5095576;28;20422;-69
2022/01/11 11:49:47;;;;;;;1.00;1.00;;;2.00;99.90;;;;;;5095161;28;20471;-72
2022/01/11 11:52:42;;;;;;;0.60;0.60;;;2.00;99.90;;;;;;5095288;28;20446;-70
2022/01/11 11:55:33;;;;;;;0.50;0.50;;;2.00;99.90;;;;;;5093950;28;20427;-70
2022/01/11 11:58:22;;;;;;;0.40;0.40;;;2.00;99.90;;;;;;5095375;28;20426;-70
2022/01/11 12:01:31;;;;;;;0.60;0.60;;;1.90;99.90;;;;;;5095354;28;20438;-70
2022/01/11 12:04:54;;;;;;;0.40;0.40;;;1.90;99.90;;;;;;5095096;28;20450;-73
2022/01/11 12:07:45;;;;;;;0.50;0.50;;;1.90;99.90;;;;;;5095809;28;20424;-70
2022/01/11 12:10:52;;;;;;;1.80;1.70;;;1.90;99.90;;;;;;5098422;28;20477;-70
2022/01/11 12:13:51;;;;;;;0.50;0.50;;;1.80;99.90;;;;;;5106522;28;20465;-71
2022/01/11 12:16:40;;;;;;;0.60;0.60;;;1.90;99.90;;;;;;5092414;28;20477;-69
2022/01/11 12:19:42;;;;;;;0.50;0.50;;;2.00;99.90;;;;;;5095542;28;20429;-70
2022/01/11 12:22:33;;;;;;;12.43;3.50;;;2.00;99.90;;;;;;5095061;28;20535;-69
2022/01/11 12:25:29;;;;;;;0.40;0.40;;;2.00;99.90;;;;;;5095949;28;20427;-70
2022/01/11 12:28:19;;;;;;;0.70;0.70;;;2.00;99.90;;;;;;5083197;28;20938;-69
2022/01/11 12:31:25;;;;;;;0.50;0.50;;;2.10;99.90;;;;;;5093291;28;20462;-70
2022/01/11 12:34:13;;;;;;;2.63;2.53;;;2.10;99.90;;;;;;5079812;28;20891;-70
2022/01/11 12:37:02;;;;;;;0.40;0.40;;;2.00;99.90;;;;;;5094160;28;20441;-69
2022/01/11 12:40:01;;;;;;;0.50;0.50;;;2.00;99.90;;;;;;5095074;28;20425;-71
2022/01/11 12:43:03;;;;;;;0.50;0.50;;;1.90;99.90;;;;;;5095277;28;20462;-69
2022/01/11 12:46:13;;;;;;;0.50;0.50;;;1.90;99.90;;;;;;5094900;28;20427;-69
2022/01/11 12:49:02;;;;;;;2.73;2.63;;;2.00;99.90;;;;;;5095495;28;20423;-70
2022/01/11 12:51:52;;;;;;;0.40;0.40;;;2.00;99.90;;;;;;5093626;28;20497;-70
2022/01/11 12:54:41;;;;;;;0.50;0.50;;;2.00;99.90;;;;;;5094095;28;20464;-70
2022/01/11 12:57:30;;;;;;;0.40;0.40;;;1.90;99.90;;;;;;5085001;28;20435;-70
2022/01/11 13:00:18;;;;;;;0.50;0.50;;;1.90;99.90;;;;;;5077590;28;20419;-69
2022/01/11 13:03:06;;;;;;;0.50;0.50;;;1.80;99.90;;;;;;5092050;28;20950;-69
2022/01/11 13:05:54;;;;;;;0.40;0.40;;;1.70;99.90;;;;;;5095827;28;20951;-70
2022/01/11 13:08:42;;;;;;;0.50;0.50;;;1.60;99.90;;;;;;5094528;28;20442;-70
2022/01/11 13:11:29;;;;;;;0.50;0.50;;;1.60;99.90;;;;;;5095871;28;20565;-70
2022/01/11 13:14:18;;;;;;;0.40;0.40;;;1.70;99.90;;;;;;5095972;28;20438;-70
2022/01/11 13:17:06;;;;;;;0.50;0.50;;;1.80;99.90;;;;;;5094460;28;20431;-70
2022/01/11 13:20:07;;;;;;;0.40;0.40;;;1.80;99.90;;;;;;5078529;28;20427;-71
2022/01/11 13:23:15;;;;;;;0.40;0.40;;;1.80;99.90;;;;;;5081172;28;20521;-70
2022/01/11 13:26:04;;;;;;;0.50;0.50;;;1.90;99.90;;;;;;5086354;28;20437;-70
2022/01/11 13:28:55;;;;;;;0.50;0.50;;;1.90;99.90;;;;;;5084759;28;20509;-70
2022/01/11 13:31:42;;;;;;;0.50;0.50;;;1.80;99.90;;;;;;5094737;28;20893;-69
2022/01/11 13:34:29;;;;;;;0.50;0.50;;;1.70;99.90;;;;;;5091648;28;20437;-71
2022/01/11 13:37:27;;;;;;;1.67;0.93;;;1.70;99.90;;;;;;5108278;28;20426;-70
2022/01/11 13:40:16;;;;;;;0.50;0.50;;;1.50;99.90;;;;;;5107918;28;20510;-72
2022/01/11 13:43:07;;;;;;;0.40;0.40;;;1.40;99.90;;;;;;5109068;28;20520;-70
2022/01/11 13:45:54;;;;;;;0.50;0.50;;;1.40;99.90;;;;;;5110523;28;20494;-73
2022/01/11 13:48:41;;;;;;;0.50;0.50;;;1.50;99.90;;;;;;5095120;28;20472;-70
2022/01/11 13:51:32;;;;;;;0.40;0.40;;;1.50;99.90;;;;;;5111222;28;20473;-72
2022/01/11 13:54:22;;;;;;;0.50;0.50;;;1.50;99.90;;;;;;5111470;28;20435;-73
2022/01/11 13:57:13;;;;;;;0.43;0.43;;;1.50;99.90;;;;;;5108008;28;20434;-71
2022/01/11 14:00:04;;;;;;;0.50;0.50;;;1.50;99.90;;;;;;5107548;28;20470;-71
2022/01/11 14:02:53;;;;;;;0.40;0.40;;;1.50;99.90;;;;;;5110786;28;20443;-70
2022/01/11 14:05:40;;;;;;;0.93;0.83;;;1.60;99.90;;;;;;5093803;28;20809;-71
2022/01/11 14:08:31;;;;;;;0.50;0.50;;;1.60;99.90;;;;;;5095673;28;20427;-70
2022/01/11 14:11:27;;;;;;;0.50;0.50;;;1.50;99.90;;;;;;5093648;28;20477;-70
2022/01/11 14:14:14;;;;;;;0.40;0.40;;;1.40;99.90;;;;;;5093719;28;20487;-71
2022/01/11 14:17:17;;;;;;;0.60;0.60;;;1.20;99.90;;;;;;5087923;28;20415;-69
2022/01/11 14:20:08;;;;;;;0.70;0.70;;;0.90;99.90;;;;;;5091898;28;20426;-70
2022/01/11 14:22:58;;;;;;;0.40;0.40;;;0.80;99.90;;;;;;5091899;28;20445;-70
2022/01/11 14:25:49;;;;;;;2.67;2.47;;;0.80;99.90;;;;;;5088271;28;20426;-70
2022/01/11 14:28:38;;;;;;;0.50;0.50;;;0.80;99.90;;;;;;5091424;28;20426;-69
2022/01/11 14:31:28;;;;;;;0.50;0.50;;;0.80;99.90;;;;;;5091772;28;20565;-70
2022/01/11 14:34:16;;;;;;;0.60;0.60;;;0.90;99.90;;;;;;5092169;28;20435;-70
2022/01/11 14:37:18;;;;;;;0.70;0.70;;;1.00;99.90;;;;;;5076711;28;20882;-70
2022/01/11 14:40:20;;;;;;;0.40;0.40;;;1.10;99.90;;;;;;5091381;28;20418;-69
2022/01/11 14:43:09;;;;;;;0.50;0.50;;;1.10;99.90;;;;;;5090472;28;20481;-69
2022/01/11 14:46:02;;;;;;;0.50;0.50;;;1.90;99.90;;;;;;5084319;28;20441;-69
2022/01/11 14:48:49;;;;;;;0.50;0.50;;;1.10;99.90;;;;;;5085782;28;20879;-70
2022/01/11 14:51:41;;;;;;;0.40;0.40;;;1.00;99.90;;;;;;5082487;28;20482;-69